sensor_id;sensor_type;location;lat;lon;timestamp;temperature;humidity
5086;DHT22;4715;51.660;7.082;2023-01-30T00:01:41;3.80;99.90
5086;DHT22;4715;51.660;7.082;2023-01-30T00:04:05;3.80;99.90
5086;DHT22;4715;51.660;7.082;2023-01-30T00:06:28;3.80;99.90
5086;DHT22;4715;51.660;7.082;2023-01-30T00:08:50;3.80;99.90
5086;DHT22;4715;51.660;7.082;2023-01-30T00:11:14;3.80;99.90
5086;DHT22;4715;51.660;7.082;2023-01-30T00:13:36;3.80;99.90
5086;DHT22;4715;51.660;7.082;2023-01-30T00:15:58;3.80;99.90
5086;DHT22;4715;51.660;7.082;2023-01-30T00:18:20;3.80;99.90
5086;DHT22;4715;51.660;7.082;2023-01-30T00:20:42;3.80;99.90
5086;DHT22;4715;51.660;7.082;2023-01-30T00:23:05;3.90;99.90
5086;DHT22;4715;51.660;7.082;2023-01-30T00:25:27;3.90;99.90
5086;DHT22;4715;51.660;7.082;2023-01-30T00:27:50;3.90;99.90
5086;DHT22;4715;51.660;7.082;2023-01-30T00:30:12;3.90;99.90
5086;DHT22;4715;51.660;7.082;2023-01-30T00:32:34;4.00;99.90
5086;DHT22;4715;51.660;7.082;2023-01-30T00:34:56;4.00;99.90
5086;DHT22;4715;51.660;7.082;2023-01-30T00:37:18;4.00;99.90
5086;DHT22;4715;51.660;7.082;2023-01-30T00:39:41;4.00;99.90
5086;DHT22;4715;51.660;7.082;2023-01-30T00:42:03;4.10;99.90
5086;DHT22;4715;51.660;7.082;2023-01-30T00:44:42;4.10;99.90
5086;DHT22;4715;51.660;7.082;2023-01-30T00:47:23;4.10;99.90
5086;DHT22;4715;51.660;7.082;2023-01-30T00:49:45;4.10;99.90
5086;DHT22;4715;51.660;7.082;2023-01-30T00:52:07;4.10;99.90
5086;DHT22;4715;51.660;7.082;2023-01-30T00:54:29;4.10;99.90
5086;DHT22;4715;51.660;7.082;2023-01-30T00:56:52;4.10;99.90
5086;DHT22;4715;51.660;7.082;2023-01-30T00:59:14;4.20;99.90
5086;DHT22;4715;51.660;7.082;2023-01-30T01:01:36;4.20;99.90
5086;DHT22;4715;51.660;7.082;2023-01-30T01:03:58;4.20;99.90
5086;DHT22;4715;51.660;7.082;2023-01-30T01:06:20;4.20;99.90
5086;DHT22;4715;51.660;7.082;2023-01-30T01:08:41;4.20;99.90
5086;DHT22;4715;51.660;7.082;2023-01-30T01:11:03;4.20;99.90
5086;DHT22;4715;51.660;7.082;2023-01-30T01:13:26;4.20;99.90
5086;DHT22;4715;51.660;7.082;2023-01-30T01:15:51;4.20;99.90
5086;DHT22;4715;51.660;7.082;2023-01-30T01:18:12;4.10;99.90
5086;DHT22;4715;51.660;7.082;2023-01-30T01:20:34;4.20;99.90
5086;DHT22;4715;51.660;7.082;2023-01-30T01:22:56;4.10;99.90
5086;DHT22;4715;51.660;7.082;2023-01-30T01:25:19;4.10;99.90
5086;DHT22;4715;51.660;7.082;2023-01-30T01:27:41;4.10;99.90
5086;DHT22;4715;51.660;7.082;2023-01-30T01:30:05;4.10;99.90
5086;DHT22;4715;51.660;7.082;2023-01-30T01:32:27;4.10;99.90
5086;DHT22;4715;51.660;7.082;2023-01-30T01:34:49;4.20;99.90
5086;DHT22;4715;51.660;7.082;2023-01-30T01:37:11;4.20;99.90
5086;DHT22;4715;51.660;7.082;2023-01-30T01:39:33;4.20;99.90
5086;DHT22;4715;51.660;7.082;2023-01-30T01:42:08;4.20;99.90
5086;DHT22;4715;51.660;7.082;2023-01-30T01:44:59;4.20;99.90
5086;DHT22;4715;51.660;7.082;2023-01-30T01:47:24;4.30;99.90
5086;DHT22;4715;51.660;7.082;2023-01-30T01:49:46;4.20;99.90
5086;DHT22;4715;51.660;7.082;2023-01-30T01:52:11;4.30;99.90
5086;DHT22;4715;51.660;7.082;2023-01-30T01:54:38;4.30;99.90
5086;DHT22;4715;51.660;7.082;2023-01-30T01:57:04;4.30;99.90
5086;DHT22;4715;51.660;7.082;2023-01-30T01:59:30;4.30;99.90
5086;DHT22;4715;51.660;7.082;2023-01-30T02:01:56;4.30;99.90
5086;DHT22;4715;51.660;7.082;2023-01-30T02:04:20;4.30;99.90
5086;DHT22;4715;51.660;7.082;2023-01-30T02:07:07;4.30;99.90
5086;DHT22;4715;51.660;7.082;2023-01-30T02:09:29;4.30;99.90
5086;DHT22;4715;51.660;7.082;2023-01-30T02:11:55;4.40;99.90
5086;DHT22;4715;51.660;7.082;2023-01-30T02:14:18;4.40;99.90
5086;DHT22;4715;51.660;7.082;2023-01-30T02:16:42;4.40;99.90
5086;DHT22;4715;51.660;7.082;2023-01-30T02:19:17;4.50;99.90
5086;DHT22;4715;51.660;7.082;2023-01-30T02:22:07;4.60;99.90
5086;DHT22;4715;51.660;7.082;2023-01-30T02:27:53;4.70;99.90
5086;DHT22;4715;51.660;7.082;2023-01-30T02:33:23;4.80;99.90
5086;DHT22;4715;51.660;7.082;2023-01-30T02:35:54;4.90;99.90
5086;DHT22;4715;51.660;7.082;2023-01-30T02:38:28;4.90;99.90
5086;DHT22;4715;51.660;7.082;2023-01-30T02:41:00;4.90;99.90
5086;DHT22;4715;51.660;7.082;2023-01-30T02:43:27;5.00;99.90
5086;DHT22;4715;51.660;7.082;2023-01-30T02:45:58;5.00;99.90
5086;DHT22;4715;51.660;7.082;2023-01-30T02:48:24;5.00;99.90
5086;DHT22;4715;51.660;7.082;2023-01-30T02:50:52;5.00;99.90
5086;DHT22;4715;51.660;7.082;2023-01-30T02:53:16;5.10;99.90
5086;DHT22;4715;51.660;7.082;2023-01-30T02:55:40;5.00;99.90
5086;DHT22;4715;51.660;7.082;2023-01-30T02:58:02;5.10;99.90
5086;DHT22;4715;51.660;7.082;2023-01-30T03:00:32;5.10;99.90
5086;DHT22;4715;51.660;7.082;2023-01-30T03:03:12;5.10;99.90
5086;DHT22;4715;51.660;7.082;2023-01-30T03:05:49;5.10;99.90
5086;DHT22;4715;51.660;7.082;2023-01-30T03:08:22;5.20;99.90
5086;DHT22;4715;51.660;7.082;2023-01-30T03:10:51;5.20;99.90
5086;DHT22;4715;51.660;7.082;2023-01-30T03:13:19;5.30;99.90
5086;DHT22;4715;51.660;7.082;2023-01-30T03:15:49;5.30;99.90
5086;DHT22;4715;51.660;7.082;2023-01-30T03:18:12;5.30;99.90
5086;DHT22;4715;51.660;7.082;2023-01-30T03:20:36;5.30;99.90
5086;DHT22;4715;51.660;7.082;2023-01-30T03:23:00;5.40;99.90
5086;DHT22;4715;51.660;7.082;2023-01-30T03:25:24;5.30;99.90
5086;DHT22;4715;51.660;7.082;2023-01-30T03:27:47;5.30;99.90
5086;DHT22;4715;51.660;7.082;2023-01-30T03:30:11;5.30;99.90
5086;DHT22;4715;51.660;7.082;2023-01-30T03:32:34;5.30;99.90
5086;DHT22;4715;51.660;7.082;2023-01-30T03:34:55;5.30;99.90
5086;DHT22;4715;51.660;7.082;2023-01-30T03:37:17;5.30;99.90
5086;DHT22;4715;51.660;7.082;2023-01-30T03:39:40;5.30;99.90
5086;DHT22;4715;51.660;7.082;2023-01-30T03:42:02;5.30;99.90
5086;DHT22;4715;51.660;7.082;2023-01-30T03:44:25;5.40;99.90
5086;DHT22;4715;51.660;7.082;2023-01-30T03:46:47;5.40;99.90
5086;DHT22;4715;51.660;7.082;2023-01-30T03:49:08;5.40;99.90
5086;DHT22;4715;51.660;7.082;2023-01-30T03:51:30;5.30;99.90
5086;DHT22;4715;51.660;7.082;2023-01-30T03:53:52;5.40;99.90
5086;DHT22;4715;51.660;7.082;2023-01-30T03:56:15;5.30;99.90
5086;DHT22;4715;51.660;7.082;2023-01-30T03:58:39;5.30;99.90
5086;DHT22;4715;51.660;7.082;2023-01-30T04:01:01;5.30;99.90
5086;DHT22;4715;51.660;7.082;2023-01-30T04:03:23;5.30;99.90
5086;DHT22;4715;51.660;7.082;2023-01-30T04:05:45;5.20;99.90
5086;DHT22;4715;51.660;7.082;2023-01-30T04:08:08;5.20;99.90
5086;DHT22;4715;51.660;7.082;2023-01-30T04:10:33;5.20;99.90
5086;DHT22;4715;51.660;7.082;2023-01-30T04:12:56;5.20;99.90
5086;DHT22;4715;51.660;7.082;2023-01-30T04:15:18;5.20;99.90
5086;DHT22;4715;51.660;7.082;2023-01-30T04:17:41;5.20;99.90
5086;DHT22;4715;51.660;7.082;2023-01-30T04:20:08;5.20;99.90
5086;DHT22;4715;51.660;7.082;2023-01-30T04:22:30;5.20;99.90
5086;DHT22;4715;51.660;7.082;2023-01-30T04:24:52;5.20;99.90
5086;DHT22;4715;51.660;7.082;2023-01-30T04:27:13;5.20;99.90
5086;DHT22;4715;51.660;7.082;2023-01-30T04:29:36;5.20;99.90
5086;DHT22;4715;51.660;7.082;2023-01-30T04:31:58;5.20;99.90
5086;DHT22;4715;51.660;7.082;2023-01-30T04:34:20;5.20;99.90
5086;DHT22;4715;51.660;7.082;2023-01-30T04:36:42;5.20;99.90
5086;DHT22;4715;51.660;7.082;2023-01-30T04:39:03;5.20;99.90
5086;DHT22;4715;51.660;7.082;2023-01-30T04:41:25;5.20;99.90
5086;DHT22;4715;51.660;7.082;2023-01-30T04:43:47;5.20;99.90
5086;DHT22;4715;51.660;7.082;2023-01-30T04:46:10;5.20;99.90
5086;DHT22;4715;51.660;7.082;2023-01-30T04:48:32;5.20;99.90
5086;DHT22;4715;51.660;7.082;2023-01-30T04:50:55;5.20;99.90
5086;DHT22;4715;51.660;7.082;2023-01-30T04:53:18;5.20;99.90
5086;DHT22;4715;51.660;7.082;2023-01-30T04:55:40;5.30;99.90
5086;DHT22;4715;51.660;7.082;2023-01-30T04:58:02;5.20;99.90
5086;DHT22;4715;51.660;7.082;2023-01-30T05:00:24;5.20;99.90
5086;DHT22;4715;51.660;7.082;2023-01-30T05:02:47;5.20;99.90
5086;DHT22;4715;51.660;7.082;2023-01-30T05:05:09;5.20;99.90
5086;DHT22;4715;51.660;7.082;2023-01-30T05:07:31;5.30;99.90
5086;DHT22;4715;51.660;7.082;2023-01-30T05:09:53;5.30;99.90
5086;DHT22;4715;51.660;7.082;2023-01-30T05:12:15;5.30;99.90
5086;DHT22;4715;51.660;7.082;2023-01-30T05:14:36;5.30;99.90
5086;DHT22;4715;51.660;7.082;2023-01-30T05:17:00;5.30;99.90
5086;DHT22;4715;51.660;7.082;2023-01-30T05:19:23;5.30;99.90
5086;DHT22;4715;51.660;7.082;2023-01-30T05:21:45;5.30;99.90
5086;DHT22;4715;51.660;7.082;2023-01-30T05:24:07;5.40;99.90
5086;DHT22;4715;51.660;7.082;2023-01-30T05:26:29;5.40;99.90
5086;DHT22;4715;51.660;7.082;2023-01-30T05:28:52;5.40;99.90
5086;DHT22;4715;51.660;7.082;2023-01-30T05:31:14;5.40;99.90
5086;DHT22;4715;51.660;7.082;2023-01-30T05:33:35;5.40;99.90
5086;DHT22;4715;51.660;7.082;2023-01-30T05:35:59;5.40;99.90
5086;DHT22;4715;51.660;7.082;2023-01-30T05:38:21;5.40;99.90
5086;DHT22;4715;51.660;7.082;2023-01-30T05:40:43;5.40;99.90
5086;DHT22;4715;51.660;7.082;2023-01-30T05:43:05;5.50;99.90
5086;DHT22;4715;51.660;7.082;2023-01-30T05:45:27;5.50;99.90
5086;DHT22;4715;51.660;7.082;2023-01-30T05:47:50;5.50;99.90
5086;DHT22;4715;51.660;7.082;2023-01-30T05:50:12;5.50;99.90
5086;DHT22;4715;51.660;7.082;2023-01-30T05:52:35;5.60;99.90
5086;DHT22;4715;51.660;7.082;2023-01-30T05:54:57;5.60;99.90
5086;DHT22;4715;51.660;7.082;2023-01-30T05:57:19;5.60;99.90
5086;DHT22;4715;51.660;7.082;2023-01-30T05:59:41;5.60;99.90
5086;DHT22;4715;51.660;7.082;2023-01-30T06:02:02;5.70;99.90
5086;DHT22;4715;51.660;7.082;2023-01-30T06:04:24;5.70;99.90
5086;DHT22;4715;51.660;7.082;2023-01-30T06:06:48;5.70;99.90
5086;DHT22;4715;51.660;7.082;2023-01-30T06:09:11;5.80;99.90
5086;DHT22;4715;51.660;7.082;2023-01-30T06:11:33;5.80;99.90
5086;DHT22;4715;51.660;7.082;2023-01-30T06:13:55;5.80;99.90
5086;DHT22;4715;51.660;7.082;2023-01-30T06:16:18;5.90;99.90
5086;DHT22;4715;51.660;7.082;2023-01-30T06:18:40;5.90;99.90
5086;DHT22;4715;51.660;7.082;2023-01-30T06:21:02;6.00;99.90
5086;DHT22;4715;51.660;7.082;2023-01-30T06:23:24;6.10;99.90
5086;DHT22;4715;51.660;7.082;2023-01-30T06:25:49;6.10;99.90
5086;DHT22;4715;51.660;7.082;2023-01-30T06:28:12;6.10;99.90
5086;DHT22;4715;51.660;7.082;2023-01-30T06:30:34;6.20;99.90
5086;DHT22;4715;51.660;7.082;2023-01-30T06:32:56;6.20;99.90
5086;DHT22;4715;51.660;7.082;2023-01-30T06:35:17;6.20;99.90
5086;DHT22;4715;51.660;7.082;2023-01-30T06:37:39;6.20;99.90
5086;DHT22;4715;51.660;7.082;2023-01-30T06:40:01;6.30;99.90
5086;DHT22;4715;51.660;7.082;2023-01-30T06:42:24;6.30;99.90
5086;DHT22;4715;51.660;7.082;2023-01-30T06:44:46;6.40;99.90
5086;DHT22;4715;51.660;7.082;2023-01-30T06:47:08;6.40;99.90
5086;DHT22;4715;51.660;7.082;2023-01-30T06:49:30;6.40;99.90
5086;DHT22;4715;51.660;7.082;2023-01-30T06:51:51;6.40;99.90
5086;DHT22;4715;51.660;7.082;2023-01-30T06:54:13;6.40;99.90
5086;DHT22;4715;51.660;7.082;2023-01-30T06:56:35;6.50;99.90
5086;DHT22;4715;51.660;7.082;2023-01-30T06:58:58;6.50;99.90
5086;DHT22;4715;51.660;7.082;2023-01-30T07:01:20;6.60;99.90
5086;DHT22;4715;51.660;7.082;2023-01-30T07:03:42;6.60;99.90
5086;DHT22;4715;51.660;7.082;2023-01-30T07:06:04;6.60;99.90
5086;DHT22;4715;51.660;7.082;2023-01-30T07:08:26;6.60;99.90
5086;DHT22;4715;51.660;7.082;2023-01-30T07:10:47;6.60;99.90
5086;DHT22;4715;51.660;7.082;2023-01-30T07:13:11;6.60;99.90
5086;DHT22;4715;51.660;7.082;2023-01-30T07:15:35;6.60;99.90
5086;DHT22;4715;51.660;7.082;2023-01-30T07:17:56;6.60;99.90
5086;DHT22;4715;51.660;7.082;2023-01-30T07:20:19;6.60;99.90
5086;DHT22;4715;51.660;7.082;2023-01-30T07:22:41;6.60;99.90
5086;DHT22;4715;51.660;7.082;2023-01-30T07:25:04;6.70;99.90
5086;DHT22;4715;51.660;7.082;2023-01-30T07:27:26;6.70;99.90
5086;DHT22;4715;51.660;7.082;2023-01-30T07:29:48;6.70;99.90
5086;DHT22;4715;51.660;7.082;2023-01-30T07:32:14;6.70;99.90
5086;DHT22;4715;51.660;7.082;2023-01-30T07:34:37;6.70;99.90
5086;DHT22;4715;51.660;7.082;2023-01-30T07:37:00;6.70;99.90
5086;DHT22;4715;51.660;7.082;2023-01-30T07:39:22;6.70;99.90
5086;DHT22;4715;51.660;7.082;2023-01-30T07:41:43;6.70;99.90
5086;DHT22;4715;51.660;7.082;2023-01-30T07:44:06;6.70;99.90
5086;DHT22;4715;51.660;7.082;2023-01-30T07:46:28;6.60;99.90
5086;DHT22;4715;51.660;7.082;2023-01-30T07:48:55;6.70;99.90
5086;DHT22;4715;51.660;7.082;2023-01-30T07:51:17;6.60;99.90
5086;DHT22;4715;51.660;7.082;2023-01-30T07:53:39;6.70;99.90
5086;DHT22;4715;51.660;7.082;2023-01-30T07:56:05;6.70;99.90
5086;DHT22;4715;51.660;7.082;2023-01-30T07:58:27;6.70;99.90
5086;DHT22;4715;51.660;7.082;2023-01-30T08:00:49;6.70;99.90
5086;DHT22;4715;51.660;7.082;2023-01-30T08:03:16;6.70;99.90
5086;DHT22;4715;51.660;7.082;2023-01-30T08:05:39;6.70;99.90
5086;DHT22;4715;51.660;7.082;2023-01-30T08:08:01;6.70;99.90
5086;DHT22;4715;51.660;7.082;2023-01-30T08:10:23;6.70;99.90
5086;DHT22;4715;51.660;7.082;2023-01-30T08:12:45;6.70;99.90
5086;DHT22;4715;51.660;7.082;2023-01-30T08:15:08;6.70;99.90
5086;DHT22;4715;51.660;7.082;2023-01-30T08:17:29;6.70;99.90
5086;DHT22;4715;51.660;7.082;2023-01-30T08:19:51;6.70;99.90
5086;DHT22;4715;51.660;7.082;2023-01-30T08:22:15;6.70;99.90
5086;DHT22;4715;51.660;7.082;2023-01-30T08:24:37;6.70;99.90
5086;DHT22;4715;51.660;7.082;2023-01-30T08:26:59;6.70;99.90
5086;DHT22;4715;51.660;7.082;2023-01-30T08:29:20;6.70;99.90
5086;DHT22;4715;51.660;7.082;2023-01-30T08:31:43;6.70;99.90
5086;DHT22;4715;51.660;7.082;2023-01-30T08:34:05;6.70;99.90
5086;DHT22;4715;51.660;7.082;2023-01-30T08:36:26;6.70;99.90
5086;DHT22;4715;51.660;7.082;2023-01-30T08:38:50;6.70;99.90
5086;DHT22;4715;51.660;7.082;2023-01-30T08:41:12;6.70;99.90
5086;DHT22;4715;51.660;7.082;2023-01-30T08:43:34;6.70;99.90
5086;DHT22;4715;51.660;7.082;2023-01-30T08:45:56;6.70;99.90
5086;DHT22;4715;51.660;7.082;2023-01-30T08:48:18;6.70;99.90
5086;DHT22;4715;51.660;7.082;2023-01-30T08:50:41;6.80;99.90
5086;DHT22;4715;51.660;7.082;2023-01-30T08:53:04;6.80;99.90
5086;DHT22;4715;51.660;7.082;2023-01-30T08:55:27;6.80;99.90
5086;DHT22;4715;51.660;7.082;2023-01-30T08:57:49;6.80;99.90
5086;DHT22;4715;51.660;7.082;2023-01-30T09:00:12;6.80;99.90
5086;DHT22;4715;51.660;7.082;2023-01-30T09:02:34;6.80;99.90
5086;DHT22;4715;51.660;7.082;2023-01-30T09:04:56;6.80;99.90
5086;DHT22;4715;51.660;7.082;2023-01-30T09:07:18;6.80;99.90
5086;DHT22;4715;51.660;7.082;2023-01-30T09:09:40;6.80;99.90
5086;DHT22;4715;51.660;7.082;2023-01-30T09:12:04;6.80;99.90
5086;DHT22;4715;51.660;7.082;2023-01-30T09:14:26;6.80;99.90
5086;DHT22;4715;51.660;7.082;2023-01-30T09:16:48;6.80;99.90
5086;DHT22;4715;51.660;7.082;2023-01-30T09:19:15;6.80;99.90
5086;DHT22;4715;51.660;7.082;2023-01-30T09:21:36;6.80;99.90
5086;DHT22;4715;51.660;7.082;2023-01-30T09:23:59;6.80;99.90
5086;DHT22;4715;51.660;7.082;2023-01-30T09:26:21;6.80;99.90
5086;DHT22;4715;51.660;7.082;2023-01-30T09:28:44;6.80;99.90
5086;DHT22;4715;51.660;7.082;2023-01-30T09:31:06;6.90;99.90
5086;DHT22;4715;51.660;7.082;2023-01-30T09:33:28;6.90;99.90
5086;DHT22;4715;51.660;7.082;2023-01-30T09:35:50;6.90;99.90
5086;DHT22;4715;51.660;7.082;2023-01-30T09:38:12;6.90;99.90
5086;DHT22;4715;51.660;7.082;2023-01-30T09:40:37;6.90;99.90
5086;DHT22;4715;51.660;7.082;2023-01-30T09:43:17;6.90;99.90
5086;DHT22;4715;51.660;7.082;2023-01-30T09:45:52;6.90;99.90
5086;DHT22;4715;51.660;7.082;2023-01-30T09:48:21;6.90;99.90
5086;DHT22;4715;51.660;7.082;2023-01-30T09:51:11;6.80;99.90
5086;DHT22;4715;51.660;7.082;2023-01-30T09:53:43;6.90;99.90
5086;DHT22;4715;51.660;7.082;2023-01-30T09:56:07;6.90;99.90
5086;DHT22;4715;51.660;7.082;2023-01-30T09:58:39;6.90;99.90
5086;DHT22;4715;51.660;7.082;2023-01-30T10:01:10;6.90;99.90
5086;DHT22;4715;51.660;7.082;2023-01-30T10:03:41;6.90;99.90
5086;DHT22;4715;51.660;7.082;2023-01-30T10:06:11;7.00;99.90
5086;DHT22;4715;51.660;7.082;2023-01-30T10:08:42;7.00;99.90
5086;DHT22;4715;51.660;7.082;2023-01-30T10:11:15;7.00;99.90
5086;DHT22;4715;51.660;7.082;2023-01-30T10:14:01;7.00;99.90
5086;DHT22;4715;51.660;7.082;2023-01-30T10:16:33;7.00;99.90
5086;DHT22;4715;51.660;7.082;2023-01-30T10:19:21;7.10;99.90
5086;DHT22;4715;51.660;7.082;2023-01-30T10:21:53;7.10;99.90
5086;DHT22;4715;51.660;7.082;2023-01-30T10:24:33;7.00;99.90
5086;DHT22;4715;51.660;7.082;2023-01-30T10:26:58;7.00;99.90
5086;DHT22;4715;51.660;7.082;2023-01-30T10:29:23;7.00;99.90
5086;DHT22;4715;51.660;7.082;2023-01-30T10:31:51;7.10;99.90
5086;DHT22;4715;51.660;7.082;2023-01-30T10:34:19;7.00;99.90
5086;DHT22;4715;51.660;7.082;2023-01-30T10:36:47;7.00;99.90
5086;DHT22;4715;51.660;7.082;2023-01-30T10:39:21;7.00;99.90
5086;DHT22;4715;51.660;7.082;2023-01-30T10:41:53;7.10;99.90
5086;DHT22;4715;51.660;7.082;2023-01-30T10:44:15;7.10;99.90
5086;DHT22;4715;51.660;7.082;2023-01-30T10:46:57;7.10;99.90
5086;DHT22;4715;51.660;7.082;2023-01-30T10:49:28;7.10;99.90
5086;DHT22;4715;51.660;7.082;2023-01-30T10:51:58;7.10;99.90
5086;DHT22;4715;51.660;7.082;2023-01-30T10:54:27;7.10;99.90
5086;DHT22;4715;51.660;7.082;2023-01-30T10:56:59;7.20;99.90
5086;DHT22;4715;51.660;7.082;2023-01-30T10:59:25;7.20;99.90
5086;DHT22;4715;51.660;7.082;2023-01-30T11:01:55;7.30;99.90
5086;DHT22;4715;51.660;7.082;2023-01-30T11:04:25;7.40;99.90
5086;DHT22;4715;51.660;7.082;2023-01-30T11:06:51;7.40;99.90
5086;DHT22;4715;51.660;7.082;2023-01-30T11:09:14;7.40;99.90
5086;DHT22;4715;51.660;7.082;2023-01-30T11:11:46;7.40;99.90
5086;DHT22;4715;51.660;7.082;2023-01-30T11:14:09;7.40;99.90
5086;DHT22;4715;51.660;7.082;2023-01-30T11:16:33;7.30;99.90
5086;DHT22;4715;51.660;7.082;2023-01-30T11:19:04;7.30;99.90
5086;DHT22;4715;51.660;7.082;2023-01-30T11:21:29;7.30;99.90
5086;DHT22;4715;51.660;7.082;2023-01-30T11:23:53;7.30;99.90
5086;DHT22;4715;51.660;7.082;2023-01-30T11:26:19;7.40;99.90
5086;DHT22;4715;51.660;7.082;2023-01-30T11:28:43;7.40;99.90
5086;DHT22;4715;51.660;7.082;2023-01-30T11:31:16;7.40;99.90
5086;DHT22;4715;51.660;7.082;2023-01-30T11:33:39;7.40;99.90
5086;DHT22;4715;51.660;7.082;2023-01-30T11:36:03;7.40;99.90
5086;DHT22;4715;51.660;7.082;2023-01-30T11:38:31;7.40;99.90
5086;DHT22;4715;51.660;7.082;2023-01-30T11:41:09;7.50;99.90
5086;DHT22;4715;51.660;7.082;2023-01-30T11:43:35;7.50;99.90
5086;DHT22;4715;51.660;7.082;2023-01-30T11:45:59;7.60;99.90
5086;DHT22;4715;51.660;7.082;2023-01-30T11:48:25;7.50;99.90
5086;DHT22;4715;51.660;7.082;2023-01-30T11:50:53;7.60;99.90
5086;DHT22;4715;51.660;7.082;2023-01-30T11:53:26;7.50;99.90
5086;DHT22;4715;51.660;7.082;2023-01-30T11:55:53;7.50;99.90
5086;DHT22;4715;51.660;7.082;2023-01-30T11:58:15;7.50;99.90
5086;DHT22;4715;51.660;7.082;2023-01-30T12:00:40;7.50;99.90
5086;DHT22;4715;51.660;7.082;2023-01-30T12:03:05;7.50;99.90
5086;DHT22;4715;51.660;7.082;2023-01-30T12:05:32;7.50;99.90
5086;DHT22;4715;51.660;7.082;2023-01-30T12:08:11;7.50;99.90
5086;DHT22;4715;51.660;7.082;2023-01-30T12:10:40;7.50;99.90
5086;DHT22;4715;51.660;7.082;2023-01-30T12:13:11;7.50;99.90
5086;DHT22;4715;51.660;7.082;2023-01-30T12:15:36;7.60;99.90
5086;DHT22;4715;51.660;7.082;2023-01-30T12:18:02;7.60;99.90
5086;DHT22;4715;51.660;7.082;2023-01-30T12:20:36;7.70;99.90
5086;DHT22;4715;51.660;7.082;2023-01-30T12:23:08;7.90;99.90
5086;DHT22;4715;51.660;7.082;2023-01-30T12:25:35;7.90;99.90
5086;DHT22;4715;51.660;7.082;2023-01-30T12:28:02;7.90;99.90
5086;DHT22;4715;51.660;7.082;2023-01-30T12:30:34;8.00;99.90
5086;DHT22;4715;51.660;7.082;2023-01-30T12:33:00;8.10;99.90
5086;DHT22;4715;51.660;7.082;2023-01-30T12:35:26;8.30;99.90
5086;DHT22;4715;51.660;7.082;2023-01-30T12:37:58;8.40;99.90
5086;DHT22;4715;51.660;7.082;2023-01-30T12:40:33;8.40;99.90
5086;DHT22;4715;51.660;7.082;2023-01-30T12:46:04;8.50;99.90
5086;DHT22;4715;51.660;7.082;2023-01-30T12:48:46;8.50;99.90
5086;DHT22;4715;51.660;7.082;2023-01-30T12:51:18;8.40;99.90
5086;DHT22;4715;51.660;7.082;2023-01-30T12:53:56;8.30;99.90
5086;DHT22;4715;51.660;7.082;2023-01-30T12:56:41;8.30;99.90
5086;DHT22;4715;51.660;7.082;2023-01-30T12:59:14;8.30;99.90
5086;DHT22;4715;51.660;7.082;2023-01-30T13:01:46;8.40;99.90
5086;DHT22;4715;51.660;7.082;2023-01-30T13:04:19;8.40;99.90
5086;DHT22;4715;51.660;7.082;2023-01-30T13:07:00;8.40;99.90
5086;DHT22;4715;51.660;7.082;2023-01-30T13:09:49;8.50;99.90
5086;DHT22;4715;51.660;7.082;2023-01-30T13:12:19;8.60;99.90
5086;DHT22;4715;51.660;7.082;2023-01-30T13:14:47;8.60;99.90
5086;DHT22;4715;51.660;7.082;2023-01-30T13:17:25;8.60;99.90
5086;DHT22;4715;51.660;7.082;2023-01-30T13:19:56;8.60;99.90
5086;DHT22;4715;51.660;7.082;2023-01-30T13:22:24;8.60;99.90
5086;DHT22;4715;51.660;7.082;2023-01-30T13:24:56;8.50;99.90
5086;DHT22;4715;51.660;7.082;2023-01-30T13:27:21;8.50;99.90
5086;DHT22;4715;51.660;7.082;2023-01-30T13:29:44;8.50;99.90
5086;DHT22;4715;51.660;7.082;2023-01-30T13:32:17;8.50;99.90
5086;DHT22;4715;51.660;7.082;2023-01-30T13:34:44;8.50;99.90
5086;DHT22;4715;51.660;7.082;2023-01-30T13:37:10;8.60;99.90
5086;DHT22;4715;51.660;7.082;2023-01-30T13:39:36;8.60;99.90
5086;DHT22;4715;51.660;7.082;2023-01-30T13:41:59;8.60;99.90
5086;DHT22;4715;51.660;7.082;2023-01-30T13:44:26;8.70;99.90
5086;DHT22;4715;51.660;7.082;2023-01-30T13:46:51;8.80;99.90
5086;DHT22;4715;51.660;7.082;2023-01-30T13:49:20;8.90;99.90
5086;DHT22;4715;51.660;7.082;2023-01-30T13:51:47;8.90;99.90
5086;DHT22;4715;51.660;7.082;2023-01-30T13:54:23;8.90;99.90
5086;DHT22;4715;51.660;7.082;2023-01-30T13:56:52;8.90;99.90
5086;DHT22;4715;51.660;7.082;2023-01-30T13:59:23;8.90;99.90
5086;DHT22;4715;51.660;7.082;2023-01-30T14:02:18;8.80;99.90
5086;DHT22;4715;51.660;7.082;2023-01-30T14:04:53;8.80;99.90
5086;DHT22;4715;51.660;7.082;2023-01-30T14:10:10;8.60;99.90
5086;DHT22;4715;51.660;7.082;2023-01-30T14:12:35;8.50;99.90
5086;DHT22;4715;51.660;7.082;2023-01-30T14:15:01;8.50;99.90
5086;DHT22;4715;51.660;7.082;2023-01-30T14:17:24;8.50;99.90
5086;DHT22;4715;51.660;7.082;2023-01-30T14:19:57;8.50;99.90
5086;DHT22;4715;51.660;7.082;2023-01-30T14:22:22;8.40;99.90
5086;DHT22;4715;51.660;7.082;2023-01-30T14:40:27;8.30;99.90
5086;DHT22;4715;51.660;7.082;2023-01-30T14:46:02;8.20;99.90
5086;DHT22;4715;51.660;7.082;2023-01-30T14:48:27;8.10;99.90
5086;DHT22;4715;51.660;7.082;2023-01-30T14:50:50;8.00;99.90
5086;DHT22;4715;51.660;7.082;2023-01-30T14:53:31;8.00;99.90
5086;DHT22;4715;51.660;7.082;2023-01-30T14:55:59;7.90;99.90
5086;DHT22;4715;51.660;7.082;2023-01-30T14:58:21;7.90;99.90
5086;DHT22;4715;51.660;7.082;2023-01-30T15:00:43;7.70;99.90
5086;DHT22;4715;51.660;7.082;2023-01-30T15:03:08;7.60;99.90
5086;DHT22;4715;51.660;7.082;2023-01-30T15:05:40;7.60;99.90
5086;DHT22;4715;51.660;7.082;2023-01-30T15:08:07;7.50;99.90
5086;DHT22;4715;51.660;7.082;2023-01-30T15:10:48;7.50;99.90
5086;DHT22;4715;51.660;7.082;2023-01-30T15:13:29;7.60;99.90
5086;DHT22;4715;51.660;7.082;2023-01-30T15:16:02;7.80;99.90
5086;DHT22;4715;51.660;7.082;2023-01-30T15:18:53;8.10;99.90
5086;DHT22;4715;51.660;7.082;2023-01-30T15:21:32;8.50;99.90
5086;DHT22;4715;51.660;7.082;2023-01-30T15:24:17;8.70;99.90
5086;DHT22;4715;51.660;7.082;2023-01-30T15:26:51;8.80;99.90
5086;DHT22;4715;51.660;7.082;2023-01-30T15:29:35;8.60;99.90
5086;DHT22;4715;51.660;7.082;2023-01-30T15:32:12;8.50;99.90
5086;DHT22;4715;51.660;7.082;2023-01-30T15:34:35;8.40;99.90
5086;DHT22;4715;51.660;7.082;2023-01-30T15:37:01;8.30;99.90
5086;DHT22;4715;51.660;7.082;2023-01-30T15:39:24;8.20;99.90
5086;DHT22;4715;51.660;7.082;2023-01-30T15:41:47;8.10;99.90
5086;DHT22;4715;51.660;7.082;2023-01-30T15:44:30;8.10;99.90
5086;DHT22;4715;51.660;7.082;2023-01-30T15:46:59;8.00;99.90
5086;DHT22;4715;51.660;7.082;2023-01-30T15:49:40;8.00;99.90
5086;DHT22;4715;51.660;7.082;2023-01-30T15:52:11;7.90;99.90
5086;DHT22;4715;51.660;7.082;2023-01-30T15:54:34;7.90;99.90
5086;DHT22;4715;51.660;7.082;2023-01-30T15:57:00;7.90;99.90
5086;DHT22;4715;51.660;7.082;2023-01-30T15:59:27;7.90;99.90
5086;DHT22;4715;51.660;7.082;2023-01-30T16:01:58;7.80;99.90
5086;DHT22;4715;51.660;7.082;2023-01-30T16:04:25;7.80;99.90
5086;DHT22;4715;51.660;7.082;2023-01-30T16:06:47;7.80;99.90
5086;DHT22;4715;51.660;7.082;2023-01-30T16:09:18;7.80;99.90
5086;DHT22;4715;51.660;7.082;2023-01-30T16:11:41;7.80;99.90
5086;DHT22;4715;51.660;7.082;2023-01-30T16:14:06;7.80;99.90
5086;DHT22;4715;51.660;7.082;2023-01-30T16:16:32;7.80;99.90
5086;DHT22;4715;51.660;7.082;2023-01-30T16:18:57;7.80;99.90
5086;DHT22;4715;51.660;7.082;2023-01-30T16:21:21;7.80;99.90
5086;DHT22;4715;51.660;7.082;2023-01-30T16:23:53;7.80;99.90
5086;DHT22;4715;51.660;7.082;2023-01-30T16:26:16;7.80;99.90
5086;DHT22;4715;51.660;7.082;2023-01-30T16:28:41;7.80;99.90
5086;DHT22;4715;51.660;7.082;2023-01-30T16:31:06;7.80;99.90
5086;DHT22;4715;51.660;7.082;2023-01-30T16:33:29;7.80;99.90
5086;DHT22;4715;51.660;7.082;2023-01-30T16:35:55;7.80;99.90
5086;DHT22;4715;51.660;7.082;2023-01-30T16:38:38;7.80;99.90
5086;DHT22;4715;51.660;7.082;2023-01-30T16:41:28;7.80;99.90